Time;durP1;ratioP1;P1;durP2;ratioP2;P2;SDS_P1;SDS_P2;PMS_P1;PMS_P2;Temp;Humidity;BMP_temperature;BMP_pressure;BME280_temperature;BME280_humidity;BME280_pressure;Samples;Min_cycle;Max_cycle;Signal;HPM_P1;HPM_P2
2023/04/18 00:01:13;;;;;;;35.42;21.08;;;8.70;99.90;;;;;;5010770;28;20030;-51
2023/04/18 00:03:39;;;;;;;38.10;19.92;;;8.60;99.90;;;;;;5010965;28;20030;-51
2023/04/18 00:06:05;;;;;;;38.78;20.10;;;8.70;99.90;;;;;;5011212;28;20185;-49
2023/04/18 00:08:32;;;;;;;42.17;21.70;;;8.70;99.90;;;;;;5011322;28;20483;-52
2023/04/18 00:10:57;;;;;;;36.42;20.70;;;8.70;99.90;;;;;;5009744;28;20022;-49
2023/04/18 00:13:23;;;;;;;36.50;20.85;;;8.60;99.90;;;;;;5009904;28;20452;-50
2023/04/18 00:15:49;;;;;;;41.17;21.58;;;8.60;99.90;;;;;;5011085;28;20026;-54
2023/04/18 00:18:16;;;;;;;37.92;21.92;;;8.60;99.90;;;;;;5009564;28;20032;-52
2023/04/18 00:20:41;;;;;;;38.85;21.50;;;8.60;99.90;;;;;;5011135;28;20022;-47
2023/04/18 00:23:07;;;;;;;38.55;19.90;;;8.60;99.90;;;;;;5010961;28;20096;-50
2023/04/18 00:25:33;;;;;;;35.47;20.33;;;8.60;99.90;;;;;;5010891;28;20105;-48
2023/04/18 00:27:58;;;;;;;38.03;21.33;;;8.60;99.90;;;;;;5010831;28;20323;-49
2023/04/18 00:30:24;;;;;;;42.40;21.45;;;8.60;99.90;;;;;;5010896;28;20022;-51
2023/04/18 00:32:49;;;;;;;38.03;20.58;;;8.50;99.90;;;;;;5010711;28;20396;-51
2023/04/18 00:35:18;;;;;;;38.60;20.55;;;8.50;99.90;;;;;;5010637;28;20022;-48
2023/04/18 00:37:44;;;;;;;37.30;20.77;;;8.50;99.90;;;;;;5010820;28;20110;-49
2023/04/18 00:40:10;;;;;;;38.10;20.80;;;8.50;99.90;;;;;;5010420;28;20100;-49
2023/04/18 00:42:35;;;;;;;33.45;20.33;;;8.40;99.90;;;;;;5009352;28;20030;-47
2023/04/18 00:45:01;;;;;;;37.63;21.13;;;8.40;99.90;;;;;;5010613;28;20497;-50
2023/04/18 00:47:27;;;;;;;39.67;21.30;;;8.30;99.90;;;;;;5009025;28;20048;-49
2023/04/18 00:49:53;;;;;;;38.22;20.23;;;8.30;99.90;;;;;;5010436;28;20076;-45
2023/04/18 00:52:19;;;;;;;36.72;20.35;;;8.30;99.90;;;;;;5010361;28;20032;-47
2023/04/18 00:54:46;;;;;;;34.75;19.02;;;8.30;99.90;;;;;;5010532;28;20029;-48
2023/04/18 00:57:12;;;;;;;39.03;20.13;;;8.30;99.90;;;;;;5010195;28;20033;-56
2023/04/18 00:59:38;;;;;;;35.20;18.95;;;8.20;99.90;;;;;;5010556;28;20048;-50
2023/04/18 01:02:04;;;;;;;35.53;20.15;;;8.30;99.90;;;;;;5008999;28;20022;-46
2023/04/18 01:04:33;;;;;;;41.92;20.83;;;8.30;99.90;;;;;;5010600;28;20096;-48
2023/04/18 01:07:00;;;;;;;33.72;19.20;;;8.30;99.90;;;;;;5010396;28;20026;-49
2023/04/18 01:09:27;;;;;;;44.60;20.80;;;8.30;99.90;;;;;;5010607;28;20032;-50
2023/04/18 01:11:52;;;;;;;39.95;20.02;;;8.30;99.90;;;;;;5010359;28;20026;-46
2023/04/18 01:14:19;;;;;;;40.20;20.27;;;8.30;99.90;;;;;;5012432;28;20029;-48
2023/04/18 01:16:46;;;;;;;36.22;20.10;;;8.40;99.90;;;;;;5014260;28;20014;-46
2023/04/18 01:19:12;;;;;;;34.75;19.08;;;8.40;99.90;;;;;;5014105;28;20544;-46
2023/04/18 01:21:42;;;;;;;35.35;20.02;;;8.40;99.90;;;;;;5014345;28;20022;-45
2023/04/18 01:24:16;;;;;;;39.22;19.20;;;8.30;99.90;;;;;;5012576;28;20529;-46
2023/04/18 01:26:43;;;;;;;39.97;20.67;;;8.30;99.90;;;;;;5013929;28;20022;-45
2023/04/18 01:29:09;;;;;;;33.25;19.25;;;8.30;99.90;;;;;;5013831;28;20512;-46
2023/04/18 01:31:39;;;;;;;32.22;19.02;;;8.30;99.90;;;;;;5014169;28;20034;-46
2023/04/18 01:34:05;;;;;;;35.83;18.25;;;8.40;99.90;;;;;;5014239;28;20029;-52
2023/04/18 01:36:32;;;;;;;33.88;18.42;;;8.30;99.90;;;;;;5014030;28;20022;-46
2023/04/18 01:39:00;;;;;;;34.53;18.23;;;8.30;99.90;;;;;;5013764;28;20030;-51
2023/04/18 01:41:28;;;;;;;32.63;18.15;;;8.40;99.90;;;;;;5013400;28;20030;-49
2023/04/18 01:43:54;;;;;;;35.20;18.58;;;8.40;99.90;;;;;;5013646;28;20037;-55
2023/04/18 01:46:19;;;;;;;31.83;18.48;;;8.50;99.90;;;;;;5013516;28;20044;-49
2023/04/18 01:48:45;;;;;;;31.90;17.25;;;8.50;99.90;;;;;;5013833;28;20088;-53
2023/04/18 01:51:10;;;;;;;31.20;17.25;;;8.50;99.90;;;;;;5013565;28;20032;-48
2023/04/18 01:53:36;;;;;;;34.75;17.98;;;8.50;99.90;;;;;;5013751;28;20104;-46
2023/04/18 01:56:01;;;;;;;32.78;18.13;;;8.50;99.90;;;;;;5013535;28;20068;-46
2023/04/18 01:58:27;;;;;;;32.65;17.75;;;8.60;99.90;;;;;;5013133;28;20449;-50
2023/04/18 02:00:53;;;;;;;30.90;17.48;;;8.60;99.90;;;;;;5013561;28;20037;-49
2023/04/18 02:03:19;;;;;;;30.15;16.02;;;8.60;99.90;;;;;;5013144;28;20065;-50
2023/04/18 02:05:45;;;;;;;35.58;18.40;;;8.60;99.90;;;;;;5011922;28;20064;-48
2023/04/18 02:08:12;;;;;;;30.13;17.33;;;8.60;99.90;;;;;;5013230;28;20030;-46
2023/04/18 02:10:37;;;;;;;29.83;16.85;;;8.60;99.90;;;;;;5013032;28;20108;-47
2023/04/18 02:13:03;;;;;;;30.08;16.17;;;8.50;99.90;;;;;;5013031;28;20478;-45
2023/04/18 02:15:29;;;;;;;32.70;17.95;;;8.50;99.90;;;;;;5013251;28;20057;-48
2023/04/18 02:17:54;;;;;;;28.67;17.33;;;8.50;99.90;;;;;;5012989;28;20026;-45
2023/04/18 02:20:20;;;;;;;30.85;16.90;;;8.50;99.90;;;;;;5012835;28;20384;-46
2023/04/18 02:22:46;;;;;;;30.92;17.67;;;8.50;99.90;;;;;;5011566;28;20061;-48
2023/04/18 02:25:12;;;;;;;31.02;17.65;;;8.50;99.90;;;;;;5012119;28;20109;-48
2023/04/18 02:27:38;;;;;;;29.52;16.40;;;8.40;99.90;;;;;;5012826;28;20481;-50
2023/04/18 02:30:05;;;;;;;29.33;16.80;;;8.40;99.90;;;;;;5013208;28;20038;-51
2023/04/18 02:32:30;;;;;;;31.33;17.00;;;8.50;99.90;;;;;;5012793;28;20405;-49
2023/04/18 02:34:56;;;;;;;33.15;18.02;;;8.60;99.90;;;;;;5013004;28;20037;-52
2023/04/18 02:37:22;;;;;;;30.88;17.27;;;8.50;99.90;;;;;;5012926;28;20018;-46
2023/04/18 02:39:47;;;;;;;32.50;17.75;;;8.60;99.90;;;;;;5012969;28;20034;-45
2023/04/18 02:42:13;;;;;;;27.65;16.48;;;8.60;99.90;;;;;;5012780;28;20493;-44
2023/04/18 02:44:39;;;;;;;29.38;16.65;;;8.60;99.90;;;;;;5012705;28;20127;-45
2023/04/18 02:47:04;;;;;;;28.15;16.23;;;8.60;99.90;;;;;;5012704;28;20120;-50
2023/04/18 02:49:31;;;;;;;35.47;17.20;;;8.60;99.90;;;;;;5012585;28;20018;-46
2023/04/18 02:51:56;;;;;;;28.52;17.30;;;8.60;99.90;;;;;;5012595;28;20102;-47
2023/04/18 02:54:23;;;;;;;34.42;18.23;;;8.60;99.90;;;;;;5012533;28;20090;-47
2023/04/18 02:56:52;;;;;;;31.75;16.67;;;8.70;99.90;;;;;;5011656;28;20033;-48
2023/04/18 02:59:17;;;;;;;29.33;17.17;;;8.70;99.90;;;;;;5011329;28;20061;-47
2023/04/18 03:01:43;;;;;;;29.60;18.70;;;8.70;99.90;;;;;;5011732;28;20018;-56
2023/04/18 03:04:08;;;;;;;35.33;17.27;;;8.70;99.90;;;;;;5009449;28;20436;-47
2023/04/18 03:06:34;;;;;;;32.20;17.33;;;8.70;99.90;;;;;;5010329;28;20050;-50
2023/04/18 03:08:59;;;;;;;29.25;17.33;;;8.70;99.90;;;;;;5012267;28;20026;-47
2023/04/18 03:11:25;;;;;;;29.83;18.73;;;8.80;99.90;;;;;;5011586;28;20021;-49
2023/04/18 03:13:52;;;;;;;28.50;17.55;;;8.80;99.90;;;;;;5012189;28;20034;-51
2023/04/18 03:16:17;;;;;;;28.50;17.23;;;8.70;99.90;;;;;;5011769;28;20105;-47
2023/04/18 03:18:43;;;;;;;34.55;18.08;;;8.70;99.90;;;;;;5012061;28;20109;-53
2023/04/18 03:21:08;;;;;;;27.33;17.10;;;8.70;99.90;;;;;;5011575;28;20092;-46
2023/04/18 03:23:34;;;;;;;31.73;18.63;;;8.70;99.90;;;;;;5010662;28;20049;-52
2023/04/18 03:26:00;;;;;;;31.25;17.88;;;8.70;99.90;;;;;;5011904;28;20033;-46
2023/04/18 03:28:25;;;;;;;34.15;19.27;;;8.80;99.90;;;;;;5011427;28;20028;-46
2023/04/18 03:30:51;;;;;;;32.88;18.38;;;8.70;99.90;;;;;;5011800;28;20022;-49
2023/04/18 03:33:16;;;;;;;31.90;18.65;;;8.70;99.90;;;;;;5011720;28;20026;-51
2023/04/18 03:35:42;;;;;;;32.90;18.77;;;8.70;99.90;;;;;;5011263;28;20374;-48
2023/04/18 03:38:07;;;;;;;32.47;19.00;;;8.60;99.90;;;;;;5011264;28;20053;-53
2023/04/18 03:40:33;;;;;;;34.42;19.60;;;8.60;99.90;;;;;;5011759;28;20032;-48
2023/04/18 03:42:59;;;;;;;31.02;18.23;;;8.50;99.90;;;;;;5011309;28;20022;-46
2023/04/18 03:45:24;;;;;;;34.85;19.63;;;8.50;99.90;;;;;;5011980;28;20080;-46
2023/04/18 03:47:50;;;;;;;33.33;17.80;;;8.50;99.90;;;;;;5011367;28;20382;-48
2023/04/18 03:50:16;;;;;;;36.20;18.60;;;8.50;99.90;;;;;;5011537;28;20030;-50
2023/04/18 03:52:41;;;;;;;32.83;17.50;;;8.40;99.90;;;;;;5011180;28;20036;-48
2023/04/18 03:55:07;;;;;;;33.85;19.30;;;8.40;99.90;;;;;;5010236;28;20124;-52
2023/04/18 03:57:33;;;;;;;32.53;18.38;;;8.40;99.90;;;;;;5011467;28;20032;-46
2023/04/18 03:59:59;;;;;;;29.70;17.17;;;8.30;99.90;;;;;;5011173;28;20045;-49
2023/04/18 04:02:24;;;;;;;38.60;18.73;;;8.30;99.90;;;;;;5011605;28;20022;-50
2023/04/18 04:04:50;;;;;;;34.60;17.88;;;8.30;99.90;;;;;;5010904;28;20121;-47
2023/04/18 04:07:16;;;;;;;32.80;18.45;;;8.20;99.90;;;;;;5011207;28;20048;-46
2023/04/18 04:09:41;;;;;;;31.02;17.77;;;8.20;99.90;;;;;;5011094;28;20048;-48
2023/04/18 04:12:07;;;;;;;32.50;19.02;;;8.20;99.90;;;;;;5011108;28;20388;-46
2023/04/18 04:14:33;;;;;;;30.08;18.42;;;8.10;99.90;;;;;;5011238;28;20050;-48
2023/04/18 04:16:58;;;;;;;31.85;17.83;;;8.10;99.90;;;;;;5010889;28;20026;-47
2023/04/18 04:19:24;;;;;;;32.38;17.10;;;8.10;99.90;;;;;;5011222;28;20026;-47
2023/04/18 04:21:50;;;;;;;31.70;17.77;;;8.00;99.90;;;;;;5011041;28;20121;-51
2023/04/18 04:24:15;;;;;;;36.97;19.15;;;8.00;99.90;;;;;;5010861;28;20030;-46
2023/04/18 04:26:41;;;;;;;32.95;17.88;;;8.00;99.90;;;;;;5010988;28;20021;-49
2023/04/18 04:29:09;;;;;;;29.42;18.35;;;8.00;99.90;;;;;;5011233;28;20053;-49
2023/04/18 04:31:35;;;;;;;28.60;16.95;;;8.00;99.90;;;;;;5011320;28;20396;-45
2023/04/18 04:34:02;;;;;;;26.70;17.08;;;8.00;99.90;;;;;;5010864;28;20472;-48
2023/04/18 04:36:28;;;;;;;28.77;16.67;;;7.90;99.90;;;;;;5011016;28;20034;-53
2023/04/18 04:38:53;;;;;;;33.10;17.83;;;8.00;99.90;;;;;;5010938;28;20160;-48
2023/04/18 04:41:19;;;;;;;31.00;17.58;;;8.00;99.90;;;;;;5010791;28;20080;-54
2023/04/18 04:43:45;;;;;;;32.92;17.05;;;8.10;99.90;;;;;;5010914;28;20034;-47
2023/04/18 04:46:12;;;;;;;31.98;17.55;;;8.10;99.90;;;;;;5010385;28;20026;-48
2023/04/18 04:48:38;;;;;;;29.75;17.05;;;8.20;99.90;;;;;;5013736;28;20029;-47
2023/04/18 04:51:04;;;;;;;33.10;18.63;;;8.20;99.90;;;;;;5014837;28;20052;-48
2023/04/18 04:53:30;;;;;;;33.88;18.63;;;8.30;99.90;;;;;;5014892;28;20152;-48
2023/04/18 04:55:56;;;;;;;32.65;19.27;;;8.30;99.90;;;;;;5014857;28;20481;-52
2023/04/18 04:58:22;;;;;;;32.38;17.77;;;8.30;99.90;;;;;;5014727;28;20034;-48
2023/04/18 05:00:49;;;;;;;32.08;18.15;;;8.30;99.90;;;;;;5014753;28;20029;-49
2023/04/18 05:03:15;;;;;;;31.73;18.77;;;8.30;99.90;;;;;;5014638;28;20038;-47
2023/04/18 05:05:41;;;;;;;28.88;17.13;;;8.30;99.90;;;;;;5014672;28;20029;-52
2023/04/18 05:08:06;;;;;;;30.92;17.52;;;8.30;99.90;;;;;;5014509;28;20503;-53
2023/04/18 05:10:33;;;;;;;29.08;17.23;;;8.20;99.90;;;;;;5014784;28;20022;-49
2023/04/18 05:12:59;;;;;;;30.98;18.50;;;8.20;99.90;;;;;;5014357;28;20508;-57
2023/04/18 05:15:24;;;;;;;32.53;17.73;;;8.20;99.90;;;;;;5014266;28;20022;-49
2023/04/18 05:17:50;;;;;;;32.08;17.25;;;8.20;99.90;;;;;;5014337;28;20084;-48
2023/04/18 05:20:15;;;;;;;29.20;16.90;;;8.20;99.90;;;;;;5014230;28;20453;-49
2023/04/18 05:22:41;;;;;;;30.55;17.23;;;8.20;99.90;;;;;;5012904;28;20104;-53
2023/04/18 05:25:07;;;;;;;30.55;16.92;;;8.20;99.90;;;;;;5014299;28;20026;-49
2023/04/18 05:27:33;;;;;;;33.25;16.77;;;8.20;99.90;;;;;;5014471;28;20026;-55
2023/04/18 05:29:58;;;;;;;28.85;17.35;;;8.20;99.90;;;;;;5014098;28;20030;-45
2023/04/18 05:32:24;;;;;;;30.63;17.15;;;8.20;99.90;;;;;;5013844;28;20358;-46
2023/04/18 05:34:50;;;;;;;27.98;17.15;;;8.20;99.90;;;;;;5014101;28;20030;-48
2023/04/18 05:37:15;;;;;;;31.15;17.17;;;8.20;99.90;;;;;;5013693;28;20454;-45
2023/04/18 05:39:41;;;;;;;27.45;16.63;;;8.20;99.90;;;;;;5013889;28;20683;-46
2023/04/18 05:42:07;;;;;;;31.92;17.25;;;8.20;99.90;;;;;;5013878;28;20117;-48
2023/04/18 05:44:33;;;;;;;26.48;16.98;;;8.30;99.90;;;;;;5013668;28;20087;-45
2023/04/18 05:46:58;;;;;;;30.70;17.17;;;8.20;99.90;;;;;;5013598;28;20038;-46
2023/04/18 05:49:24;;;;;;;28.77;17.02;;;8.20;99.90;;;;;;5013571;28;20022;-45
2023/04/18 05:51:51;;;;;;;29.33;16.63;;;8.30;99.90;;;;;;5012490;28;20038;-47
2023/04/18 05:54:18;;;;;;;28.42;16.77;;;8.30;99.90;;;;;;5013926;28;20033;-45
2023/04/18 05:56:43;;;;;;;31.40;16.73;;;8.40;99.90;;;;;;5013882;28;20029;-45
2023/04/18 05:59:09;;;;;;;27.65;16.08;;;8.50;99.90;;;;;;5012931;28;20050;-46
2023/04/18 06:01:35;;;;;;;26.45;16.27;;;8.50;99.90;;;;;;5013762;28;20014;-48
2023/04/18 06:04:00;;;;;;;28.83;16.33;;;8.70;99.90;;;;;;5013549;28;20443;-50
2023/04/18 06:06:26;;;;;;;25.20;15.40;;;8.70;99.90;;;;;;5013461;28;20381;-48
2023/04/18 06:08:52;;;;;;;29.13;16.85;;;8.90;99.90;;;;;;5013462;28;20030;-54
2023/04/18 06:11:20;;;;;;;26.65;15.90;;;9.00;99.90;;;;;;5013451;28;20022;-47
2023/04/18 06:13:45;;;;;;;28.50;16.80;;;9.00;99.90;;;;;;5013495;28;20053;-49
2023/04/18 06:16:11;;;;;;;28.70;16.73;;;9.00;99.90;;;;;;5013085;28;20049;-50
2023/04/18 06:18:37;;;;;;;33.53;18.23;;;9.00;99.90;;;;;;5013267;28;20026;-46
2023/04/18 06:21:03;;;;;;;37.78;18.98;;;9.00;99.90;;;;;;5013094;28;20041;-48
2023/04/18 06:23:29;;;;;;;31.65;19.20;;;9.00;99.90;;;;;;5013356;28;20124;-45
2023/04/18 06:25:56;;;;;;;31.88;18.50;;;8.80;99.90;;;;;;5013341;28;20415;-49
2023/04/18 06:28:21;;;;;;;31.88;18.35;;;8.80;99.90;;;;;;5013025;28;20048;-47
2023/04/18 06:30:47;;;;;;;40.58;19.98;;;8.70;99.90;;;;;;5013245;28;20465;-48
2023/04/18 06:33:13;;;;;;;30.50;18.35;;;8.60;99.90;;;;;;5012764;28;20026;-49
2023/04/18 06:35:38;;;;;;;34.15;19.58;;;8.40;99.90;;;;;;5012729;28;20097;-47
2023/04/18 06:38:04;;;;;;;32.88;19.60;;;8.40;99.90;;;;;;5012827;28;20026;-46
2023/04/18 06:40:30;;;;;;;38.80;19.98;;;8.40;99.90;;;;;;5013049;28;20033;-54
2023/04/18 06:42:55;;;;;;;38.20;20.77;;;8.40;99.90;;;;;;5012757;28;20461;-51
2023/04/18 06:45:21;;;;;;;33.20;19.88;;;8.40;99.90;;;;;;5012577;28;20479;-52
2023/04/18 06:47:47;;;;;;;35.72;19.83;;;8.30;99.90;;;;;;5012539;28;20026;-46
2023/04/18 06:50:14;;;;;;;37.67;20.95;;;8.40;99.90;;;;;;5012668;28;20537;-55
2023/04/18 06:52:43;;;;;;;32.55;19.42;;;8.40;99.90;;;;;;5012399;28;20103;-46
2023/04/18 06:55:09;;;;;;;39.45;20.00;;;8.40;99.90;;;;;;5012649;28;20125;-46
2023/04/18 06:57:39;;;;;;;36.17;20.77;;;8.40;99.90;;;;;;5012491;28;20474;-46
2023/04/18 07:00:05;;;;;;;;;;;8.40;99.90;;;;;;4999324;28;20093;-49
2023/04/18 07:02:31;;;;;;;35.22;19.83;;;8.50;99.90;;;;;;5012257;28;19905;-47
2023/04/18 07:04:56;;;;;;;36.00;20.83;;;8.50;99.90;;;;;;5012177;28;20044;-48
2023/04/18 07:07:22;;;;;;;35.08;20.42;;;8.50;99.90;;;;;;5009260;28;20034;-47
2023/04/18 07:09:48;;;;;;;37.55;20.00;;;8.60;99.90;;;;;;5033923;28;20029;-48
2023/04/18 07:12:15;;;;;;;35.10;20.65;;;8.70;99.90;;;;;;5011615;28;20383;-53
2023/04/18 07:14:40;;;;;;;37.28;20.45;;;8.80;99.90;;;;;;5017071;28;20025;-50
2023/04/18 07:17:06;;;;;;;38.85;21.48;;;8.90;99.90;;;;;;5014437;28;20024;-51
2023/04/18 07:19:32;;;;;;;38.38;21.35;;;8.90;99.90;;;;;;5011917;28;20117;-46
2023/04/18 07:21:57;;;;;;;37.63;22.02;;;9.10;99.90;;;;;;5007813;28;20021;-47
2023/04/18 07:24:23;;;;;;;35.25;20.60;;;9.20;99.90;;;;;;5009542;28;20065;-45
2023/04/18 07:26:50;;;;;;;38.15;21.98;;;9.30;99.90;;;;;;5009135;28;20030;-45
2023/04/18 07:29:15;;;;;;;34.78;20.85;;;9.40;99.90;;;;;;5011858;28;20014;-50
2023/04/18 07:31:41;;;;;;;38.65;20.85;;;9.40;99.90;;;;;;5011677;28;20034;-48
2023/04/18 07:34:08;;;;;;;34.72;20.70;;;9.40;99.90;;;;;;5010425;28;20013;-49
2023/04/18 07:36:33;;;;;;;41.40;21.77;;;9.60;99.90;;;;;;5016623;28;20496;-49
2023/04/18 07:39:00;;;;;;;37.75;20.92;;;9.80;99.90;;;;;;5016229;28;20036;-55
2023/04/18 07:41:26;;;;;;;36.80;20.00;;;10.10;99.90;;;;;;5011519;28;20103;-50
2023/04/18 07:43:51;;;;;;;33.83;19.20;;;10.30;99.90;;;;;;5018447;28;20069;-47
2023/04/18 07:46:17;;;;;;;32.60;18.17;;;10.90;99.90;;;;;;5010866;28;20014;-45
2023/04/18 07:48:43;;;;;;;32.28;18.33;;;11.40;99.90;;;;;;5011378;28;20044;-46
2023/04/18 07:51:09;;;;;;;26.30;17.25;;;11.80;99.90;;;;;;5011036;28;20026;-46
2023/04/18 07:53:35;;;;;;;30.35;17.52;;;12.10;99.90;;;;;;5011468;28;20026;-49
2023/04/18 07:56:01;;;;;;;29.20;16.33;;;12.40;99.90;;;;;;5023312;28;20026;-46
2023/04/18 07:58:26;;;;;;;27.10;16.70;;;12.40;99.90;;;;;;5023699;28;20128;-49
2023/04/18 08:00:52;;;;;;;30.60;17.05;;;12.50;99.90;;;;;;5017884;28;20036;-45
2023/04/18 08:03:18;;;;;;;27.10;16.25;;;12.80;99.90;;;;;;5006736;28;20072;-49
2023/04/18 08:05:43;;;;;;;26.52;15.38;;;13.70;99.90;;;;;;5013077;28;20072;-51
2023/04/18 08:08:10;;;;;;;26.25;15.25;;;15.10;99.90;;;;;;5011147;28;20034;-49
2023/04/18 08:10:36;;;;;;;22.48;14.43;;;16.30;99.90;;;;;;5015882;28;20030;-51
2023/04/18 08:13:03;;;;;;;21.70;13.90;;;17.20;95.70;;;;;;5010513;28;20018;-46
2023/04/18 08:15:31;;;;;;;20.92;13.80;;;16.50;91.20;;;;;;5009183;28;20030;-46
2023/04/18 08:17:57;;;;;;;24.42;14.57;;;17.40;93.50;;;;;;5007209;28;20032;-46
2023/04/18 08:20:23;;;;;;;20.80;13.27;;;17.50;86.20;;;;;;5015537;28;20037;-50
2023/04/18 08:22:49;;;;;;;20.02;13.32;;;17.60;85.30;;;;;;5010436;28;20067;-46
2023/04/18 08:25:15;;;;;;;24.55;12.57;;;18.20;83.10;;;;;;5009840;28;20034;-50
2023/04/18 08:27:42;;;;;;;21.23;12.77;;;17.90;83.80;;;;;;5003320;28;20439;-49
2023/04/18 08:30:09;;;;;;;19.80;12.18;;;17.70;85.40;;;;;;5008482;28;20029;-47
2023/04/18 08:32:37;;;;;;;21.98;12.40;;;16.40;83.70;;;;;;5007955;28;20022;-49
2023/04/18 08:35:03;;;;;;;18.35;11.43;;;15.60;87.90;;;;;;5007604;28;20018;-55
2023/04/18 08:37:29;;;;;;;20.90;12.52;;;15.50;91.80;;;;;;5007325;28;20050;-54
2023/04/18 08:39:55;;;;;;;19.90;12.15;;;15.10;89.70;;;;;;5008794;28;20103;-51
2023/04/18 08:42:22;;;;;;;23.80;12.40;;;14.70;92.10;;;;;;5009649;28;20029;-46
2023/04/18 08:44:48;;;;;;;20.77;11.88;;;14.70;92.50;;;;;;5010519;28;20038;-50
2023/04/18 08:47:15;;;;;;;18.52;11.75;;;15.50;92.30;;;;;;5010126;28;20377;-47
2023/04/18 08:49:42;;;;;;;18.05;10.77;;;16.30;87.00;;;;;;5012324;28;20032;-46
2023/04/18 08:52:13;;;;;;;22.45;11.35;;;16.70;88.70;;;;;;5012702;28;20021;-48
2023/04/18 08:54:43;;;;;;;18.73;10.45;;;16.40;82.40;;;;;;5008256;28;20057;-48
2023/04/18 08:57:11;;;;;;;17.35;10.48;;;16.70;82.50;;;;;;5015818;28;20076;-46
2023/04/18 08:59:37;;;;;;;17.48;10.07;;;16.30;81.90;;;;;;5010561;28;20074;-45
2023/04/18 09:02:05;;;;;;;16.70;8.82;;;16.80;81.50;;;;;;5008989;28;20029;-45
2023/04/18 09:04:38;;;;;;;13.55;8.93;;;17.30;77.40;;;;;;4997727;28;20079;-45
2023/04/18 09:07:05;;;;;;;16.15;9.93;;;16.40;80.30;;;;;;5001128;28;20487;-45
2023/04/18 09:09:50;;;;;;;14.82;9.15;;;15.40;81.60;;;;;;5010867;28;20034;-43
2023/04/18 09:12:18;;;;;;;13.80;8.82;;;14.30;84.90;;;;;;5010842;28;20640;-54
2023/04/18 09:15:11;;;;;;;16.33;9.20;;;13.80;88.40;;;;;;5008813;28;20034;-52
2023/04/18 09:17:48;;;;;;;16.90;9.15;;;13.30;90.10;;;;;;5000207;28;20041;-49
2023/04/18 09:20:29;;;;;;;18.30;9.65;;;13.20;91.90;;;;;;5009600;28;20030;-50
2023/04/18 09:22:59;;;;;;;18.17;10.23;;;13.00;92.60;;;;;;5002030;28;20022;-47
2023/04/18 09:25:26;;;;;;;16.83;9.45;;;12.80;93.60;;;;;;5009528;28;20037;-46
2023/04/18 09:27:52;;;;;;;18.15;9.05;;;12.60;94.10;;;;;;5009655;28;20019;-46
2023/04/18 09:30:33;;;;;;;19.27;10.10;;;12.60;95.50;;;;;;5010026;28;20465;-46
2023/04/18 09:33:00;;;;;;;16.38;8.70;;;12.60;96.60;;;;;;5010265;28;20022;-45
2023/04/18 09:35:26;;;;;;;18.65;9.20;;;12.50;96.60;;;;;;5012591;28;20136;-48
2023/04/18 09:37:52;;;;;;;19.92;9.18;;;12.50;97.10;;;;;;5013760;28;20029;-49
2023/04/18 09:40:18;;;;;;;18.52;9.48;;;12.20;97.10;;;;;;5013506;28;20112;-49
2023/04/18 09:42:45;;;;;;;19.00;9.15;;;12.20;98.60;;;;;;5013796;28;20028;-52
2023/04/18 09:45:12;;;;;;;20.73;8.80;;;12.00;99.00;;;;;;5013963;28;20045;-44
2023/04/18 09:47:38;;;;;;;18.42;8.23;;;11.90;99.90;;;;;;5013899;28;20057;-48
2023/04/18 09:50:08;;;;;;;16.50;7.63;;;12.20;99.20;;;;;;5014235;28;20018;-50
2023/04/18 09:52:36;;;;;;;17.02;8.10;;;12.60;96.60;;;;;;5013819;28;20033;-45
2023/04/18 09:55:04;;;;;;;15.13;7.65;;;12.60;97.50;;;;;;5013496;28;20048;-45
2023/04/18 09:57:32;;;;;;;14.65;7.05;;;12.60;97.70;;;;;;5013671;28;20030;-45
2023/04/18 10:00:16;;;;;;;11.02;6.28;;;12.60;97.20;;;;;;5013566;28;20092;-50
2023/04/18 10:02:57;;;;;;;17.70;7.22;;;12.70;97.40;;;;;;5011768;28;20026;-49
2023/04/18 10:05:29;;;;;;;15.20;6.15;;;12.90;97.30;;;;;;5013307;28;20432;-47
2023/04/18 10:07:55;;;;;;;9.13;5.68;;;13.00;96.70;;;;;;5001876;28;20394;-51
2023/04/18 10:10:22;;;;;;;10.00;4.97;;;12.90;94.60;;;;;;5014001;28;20032;-53
2023/04/18 10:12:49;;;;;;;11.90;5.88;;;13.00;94.10;;;;;;5013636;28;20018;-49
2023/04/18 10:15:17;;;;;;;11.23;6.45;;;13.30;93.70;;;;;;5013325;28;20466;-49
2023/04/18 10:17:53;;;;;;;12.07;6.07;;;13.50;92.20;;;;;;5013710;28;20029;-54
2023/04/18 10:20:21;;;;;;;17.70;6.22;;;13.60;92.70;;;;;;5013212;28;20022;-50
2023/04/18 10:22:48;;;;;;;12.38;6.18;;;13.40;92.80;;;;;;5012860;28;20018;-39
2023/04/18 10:25:32;;;;;;;15.00;6.60;;;13.20;93.80;;;;;;5011766;28;20135;-47
2023/04/18 10:27:59;;;;;;;12.32;6.22;;;13.20;94.00;;;;;;5010559;28;20022;-45
2023/04/18 10:30:38;;;;;;;10.27;5.97;;;13.10;94.70;;;;;;5010508;28;20041;-49
2023/04/18 10:33:31;;;;;;;12.20;6.90;;;13.60;95.10;;;;;;5012706;28;20371;-52
2023/04/18 10:36:11;;;;;;;15.18;7.10;;;13.40;93.50;;;;;;5012783;28;20108;-45
2023/04/18 10:38:45;;;;;;;14.50;7.25;;;13.00;94.40;;;;;;5013088;28;20054;-50
2023/04/18 10:41:32;;;;;;;13.93;6.60;;;13.10;95.80;;;;;;5012894;28;20030;-55
2023/04/18 10:44:17;;;;;;;13.65;7.60;;;13.20;95.10;;;;;;5012550;28;20393;-46
2023/04/18 10:46:51;;;;;;;12.85;6.95;;;12.90;94.80;;;;;;5000938;28;20033;-51
2023/04/18 10:49:26;;;;;;;14.10;7.18;;;12.70;95.90;;;;;;5012780;28;20053;-47
2023/04/18 10:51:58;;;;;;;15.38;7.25;;;12.60;96.80;;;;;;5027752;28;20029;-48
2023/04/18 10:54:40;;;;;;;16.17;7.65;;;12.60;97.30;;;;;;5012579;28;20033;-47
2023/04/18 10:57:07;;;;;;;15.38;6.93;;;12.70;97.90;;;;;;5012602;28;20125;-48
2023/04/18 10:59:40;;;;;;;15.88;7.53;;;12.50;97.40;;;;;;5012423;28;20635;-49
2023/04/18 11:02:08;;;;;;;17.30;7.70;;;12.60;98.50;;;;;;5012601;28;20026;-49
2023/04/18 11:04:34;;;;;;;16.08;7.32;;;12.50;98.30;;;;;;5012261;28;20124;-48
2023/04/18 11:07:00;;;;;;;15.68;7.68;;;12.70;98.90;;;;;;5012108;28;20568;-46
2023/04/18 11:09:26;;;;;;;17.25;7.80;;;12.90;97.90;;;;;;5012372;28;20034;-49
2023/04/18 11:12:05;;;;;;;15.95;7.80;;;13.10;98.20;;;;;;5011862;28;20021;-47
2023/04/18 11:14:40;;;;;;;16.67;8.52;;;13.40;96.90;;;;;;5011990;28;20488;-46
2023/04/18 11:17:26;;;;;;;17.55;8.35;;;13.50;95.40;;;;;;5007732;28;20049;-47
2023/04/18 11:20:12;;;;;;;15.60;8.85;;;12.90;95.30;;;;;;5011962;28;20022;-52
2023/04/18 11:22:52;;;;;;;14.82;7.90;;;12.90;96.80;;;;;;5011994;28;20053;-47
2023/04/18 11:25:22;;;;;;;16.13;9.15;;;12.40;97.10;;;;;;5011902;28;20418;-46
2023/04/18 11:27:53;;;;;;;19.35;8.63;;;12.20;98.40;;;;;;5011546;28;20029;-47
2023/04/18 11:30:19;;;;;;;11.90;8.40;;;12.30;99.20;;;;;;5011973;28;20034;-48
2023/04/18 11:32:45;;;;;;;17.92;8.50;;;12.50;99.00;;;;;;5011712;28;20385;-46
2023/04/18 11:35:12;;;;;;;18.27;9.13;;;12.70;98.40;;;;;;5011844;28;20026;-48
2023/04/18 11:37:44;;;;;;;15.88;8.45;;;12.80;97.70;;;;;;5011721;28;20029;-48
2023/04/18 11:40:11;;;;;;;15.00;7.70;;;12.80;97.40;;;;;;5011709;28;20677;-44
2023/04/18 11:42:38;;;;;;;13.77;8.20;;;12.70;96.40;;;;;;5011886;28;20088;-40
2023/04/18 11:45:12;;;;;;;14.30;8.02;;;12.80;96.10;;;;;;5013724;28;20033;-46
2023/04/18 11:47:38;;;;;;;17.13;7.82;;;12.90;95.10;;;;;;5011549;28;20053;-45
2023/04/18 11:50:06;;;;;;;13.32;8.23;;;13.00;95.70;;;;;;5011124;28;20093;-50
2023/04/18 11:52:33;;;;;;;14.07;8.40;;;13.10;94.80;;;;;;5011261;28;20428;-49
2023/04/18 11:55:17;;;;;;;14.65;8.70;;;13.00;94.30;;;;;;5011308;28;20026;-50
2023/04/18 11:57:49;;;;;;;18.42;8.23;;;13.00;94.90;;;;;;5002755;28;20152;-48
2023/04/18 12:00:15;;;;;;;12.57;7.82;;;12.90;95.10;;;;;;5010940;28;20053;-54
2023/04/18 12:02:50;;;;;;;13.93;8.85;;;12.90;96.50;;;;;;5010365;28;20018;-49
2023/04/18 12:05:28;;;;;;;13.70;8.18;;;12.90;94.90;;;;;;5007837;28;20534;-46
2023/04/18 12:07:54;;;;;;;13.05;9.32;;;12.80;94.70;;;;;;5009327;28;20026;-45
2023/04/18 12:10:25;;;;;;;13.63;8.70;;;12.90;95.10;;;;;;5009989;28;20030;-46
2023/04/18 12:12:59;;;;;;;15.05;8.60;;;13.30;95.30;;;;;;5010190;28;20417;-46
2023/04/18 12:15:27;;;;;;;13.52;8.52;;;13.40;93.20;;;;;;5011495;28;20033;-45
2023/04/18 12:17:58;;;;;;;17.77;8.30;;;13.20;92.10;;;;;;5011966;28;20037;-45
2023/04/18 12:20:31;;;;;;;12.10;8.43;;;13.10;93.20;;;;;;5011933;28;20014;-45
2023/04/18 12:22:57;;;;;;;13.70;9.43;;;12.70;93.30;;;;;;5011963;28;20030;-45
2023/04/18 12:25:27;;;;;;;16.40;9.57;;;12.50;94.50;;;;;;5011180;28;20033;-46
2023/04/18 12:28:00;;;;;;;15.90;9.70;;;12.40;95.20;;;;;;5011407;28;20030;-45
2023/04/18 12:30:33;;;;;;;14.70;10.10;;;12.60;95.10;;;;;;5011058;28;20021;-45
2023/04/18 12:33:03;;;;;;;15.52;10.27;;;12.60;96.40;;;;;;5010297;28;20033;-48
2023/04/18 12:35:29;;;;;;;;;;;12.60;96.80;;;;;;5003818;28;20034;-48
2023/04/18 12:37:57;;;;;;;16.63;8.57;;;13.00;96.30;;;;;;5006659;28;19909;-54